Time;durP1;ratioP1;P1;durP2;ratioP2;P2;SDS_P1;SDS_P2;PMS_P1;PMS_P2;Temp;Humidity;BMP_temperature;BMP_pressure;BME280_temperature;BME280_humidity;BME280_pressure;Samples;Min_cycle;Max_cycle;Signal;HPM_P1;HPM_P2
2022/01/17 00:02:19;;;;;;;80.43;36.75;;;-0.70;99.90;;;;;;5060370;28;20062;-77
2022/01/17 00:04:47;;;;;;;77.90;36.00;;;-0.60;99.90;;;;;;5061455;28;20044;-77
2022/01/17 00:07:12;;;;;;;75.43;35.10;;;-0.60;99.90;;;;;;5058612;28;20031;-77
2022/01/17 00:09:38;;;;;;;65.82;34.10;;;-0.60;99.90;;;;;;5058123;28;20020;-77
2022/01/17 00:12:04;;;;;;;73.25;32.47;;;-0.60;99.90;;;;;;5060765;28;20071;-77
2022/01/17 00:14:34;;;;;;;74.78;34.63;;;-0.60;99.90;;;;;;5058619;28;20394;-77
2022/01/17 00:17:28;;;;;;;58.10;31.60;;;-0.50;99.90;;;;;;5059822;28;20025;-77
2022/01/17 00:19:52;;;;;;;57.58;29.52;;;-0.50;99.90;;;;;;5057801;28;20052;-78
2022/01/17 00:22:19;;;;;;;71.78;37.03;;;-0.50;99.90;;;;;;5061080;28;20021;-77
2022/01/17 00:24:46;;;;;;;74.90;33.08;;;-0.40;99.90;;;;;;5061012;28;20013;-78
2022/01/17 00:27:12;;;;;;;50.20;26.38;;;-0.50;99.90;;;;;;5058968;28;20045;-78
2022/01/17 00:29:38;;;;;;;56.50;28.73;;;-0.40;99.90;;;;;;5060111;28;20484;-78
2022/01/17 00:32:04;;;;;;;59.53;27.60;;;-0.40;99.90;;;;;;5059320;28;20513;-78
2022/01/17 00:34:30;;;;;;;49.80;25.58;;;-0.40;99.90;;;;;;5057955;28;20024;-78
2022/01/17 00:36:56;;;;;;;52.63;28.08;;;-0.30;99.90;;;;;;5057449;28;20025;-78
2022/01/17 00:39:21;;;;;;;46.90;23.85;;;-0.40;99.90;;;;;;5058550;28;20032;-78
2022/01/17 00:41:47;;;;;;;52.28;27.83;;;-0.30;99.90;;;;;;5058664;28;20029;-78
2022/01/17 00:44:16;;;;;;;57.22;27.67;;;-0.30;99.90;;;;;;5066942;28;20044;-79
2022/01/17 00:46:42;;;;;;;54.15;26.58;;;-0.30;99.90;;;;;;5056750;28;20478;-78
2022/01/17 00:49:08;;;;;;;59.85;28.50;;;-0.40;99.90;;;;;;5058332;28;20096;-78
2022/01/17 00:51:33;;;;;;;60.50;28.65;;;-0.30;99.90;;;;;;5060720;28;20482;-78
2022/01/17 00:53:59;;;;;;;61.00;30.35;;;-0.30;99.90;;;;;;5060514;28;20517;-78
2022/01/17 00:56:24;;;;;;;64.07;32.22;;;-0.30;99.90;;;;;;5059910;28;20056;-79
2022/01/17 00:58:51;;;;;;;67.65;29.73;;;-0.30;99.90;;;;;;5058089;28;20052;-79
2022/01/17 01:01:17;;;;;;;62.95;31.15;;;-0.30;99.90;;;;;;5059674;28;20465;-78
2022/01/17 01:03:43;;;;;;;80.47;37.55;;;-0.30;99.90;;;;;;5057588;28;20039;-79
2022/01/17 01:06:09;;;;;;;74.97;33.60;;;-0.20;99.90;;;;;;5057332;28;20017;-79
2022/01/17 01:08:34;;;;;;;67.63;32.92;;;-0.20;99.90;;;;;;5056515;28;20020;-79
2022/01/17 01:11:00;;;;;;;72.07;34.88;;;-0.20;99.90;;;;;;5058377;28;20381;-78
2022/01/17 01:13:28;;;;;;;76.80;35.13;;;-0.20;99.90;;;;;;5055707;28;20024;-78
2022/01/17 01:21:33;;;;;;;;;;;-0.10;99.90;;;;;;5059535;28;20021;-77
2022/01/17 01:29:18;;;;;;;55.05;28.85;;;-0.10;99.90;;;;;;5059400;28;20034;-77
2022/01/17 01:31:55;;;;;;;61.95;29.90;;;-0.10;99.90;;;;;;5059774;28;20017;-78
2022/01/17 01:34:30;;;;;;;74.95;34.97;;;-0.10;99.90;;;;;;5058057;28;20096;-78
2022/01/17 01:36:56;;;;;;;64.30;31.90;;;0.00;99.90;;;;;;5055603;28;20059;-78
2022/01/17 01:39:24;;;;;;;61.30;29.95;;;0.00;99.90;;;;;;5055426;28;20025;-79
2022/01/17 01:41:50;;;;;;;77.03;34.58;;;0.00;99.90;;;;;;5059450;28;20028;-79
2022/01/17 01:44:19;;;;;;;64.82;30.85;;;0.10;99.90;;;;;;5057324;28;20017;-79
2022/01/17 01:46:45;;;;;;;66.32;32.08;;;0.10;99.90;;;;;;5057528;28;20062;-79
2022/01/17 01:49:12;;;;;;;58.50;29.20;;;0.10;99.90;;;;;;5057198;28;20109;-79
2022/01/17 01:51:38;;;;;;;65.25;31.63;;;0.10;99.90;;;;;;5060354;28;20063;-79
2022/01/17 01:54:04;;;;;;;69.85;32.33;;;0.10;99.90;;;;;;5058283;28;20021;-78
2022/01/17 01:56:30;;;;;;;70.40;32.38;;;0.10;99.90;;;;;;5055232;28;20021;-78
2022/01/17 01:58:55;;;;;;;66.88;33.63;;;0.10;99.90;;;;;;5058798;28;20599;-79
2022/01/17 02:01:21;;;;;;;83.43;36.30;;;0.10;99.90;;;;;;5059914;28;20104;-78
2022/01/17 02:03:47;;;;;;;77.15;37.20;;;0.10;99.90;;;;;;5059313;28;20053;-78
2022/01/17 02:06:13;;;;;;;78.38;35.58;;;0.10;99.90;;;;;;5056590;28;20022;-79
2022/01/17 02:08:38;;;;;;;70.45;36.50;;;0.10;99.90;;;;;;5057332;28;20088;-79
2022/01/17 02:11:04;;;;;;;69.22;34.83;;;0.10;99.90;;;;;;5055201;28;20020;-79
2022/01/17 02:13:29;;;;;;;63.00;31.77;;;0.10;99.90;;;;;;5057690;28;20616;-79
2022/01/17 02:16:03;;;;;;;61.45;30.00;;;0.10;99.90;;;;;;5056738;28;20458;-78
2022/01/17 02:18:31;;;;;;;62.88;31.30;;;0.10;99.90;;;;;;5056741;28;20047;-78
2022/01/17 02:21:20;;;;;;;59.03;30.90;;;0.10;99.90;;;;;;5056426;28;20385;-78
2022/01/17 02:23:48;;;;;;;55.60;26.98;;;0.10;99.90;;;;;;5059301;28;20028;-78
2022/01/17 02:26:16;;;;;;;57.40;27.10;;;0.00;99.90;;;;;;5055643;28;20027;-78
2022/01/17 02:28:50;;;;;;;48.03;24.08;;;0.10;99.90;;;;;;5056264;28;20039;-78
2022/01/17 02:31:16;;;;;;;50.63;26.08;;;0.10;99.90;;;;;;5065357;28;20020;-78
2022/01/17 02:33:42;;;;;;;43.13;23.23;;;0.10;99.90;;;;;;5057984;28;20462;-78
2022/01/17 02:36:09;;;;;;;48.22;23.55;;;0.00;99.90;;;;;;5059765;28;20074;-78
2022/01/17 02:38:35;;;;;;;52.25;24.75;;;0.00;99.90;;;;;;5057358;28;20033;-78
2022/01/17 02:41:00;;;;;;;38.78;21.50;;;0.00;99.90;;;;;;5057615;28;20069;-78
2022/01/17 02:43:27;;;;;;;44.97;21.70;;;0.00;99.90;;;;;;5060750;28;20021;-78
2022/01/17 02:48:22;;;;;;;51.70;24.95;;;-0.10;99.90;;;;;;5057566;28;20404;-79
2022/01/17 02:50:48;;;;;;;43.50;21.95;;;-0.10;99.90;;;;;;5057241;28;20017;-78
2022/01/17 02:53:14;;;;;;;45.20;23.65;;;-0.10;99.90;;;;;;5056999;28;20024;-79
2022/01/17 02:55:49;;;;;;;46.50;23.30;;;-0.10;99.90;;;;;;5057933;28;20524;-79
2022/01/17 02:58:18;;;;;;;43.97;23.60;;;-0.10;99.90;;;;;;5058136;28;20504;-79
2022/01/17 03:00:43;;;;;;;44.13;22.13;;;-0.10;99.90;;;;;;5056866;28;20416;-80
2022/01/17 03:03:23;;;;;;;39.78;21.15;;;0.00;99.90;;;;;;5061495;28;20037;-79
2022/01/17 03:05:49;;;;;;;47.75;22.98;;;-0.10;99.90;;;;;;5060702;28;20027;-79
2022/01/17 03:08:16;;;;;;;46.80;22.52;;;-0.10;99.90;;;;;;5062316;28;20048;-79
2022/01/17 03:10:46;;;;;;;42.42;21.90;;;-0.10;99.90;;;;;;5062346;28;20090;-79
2022/01/17 03:13:31;;;;;;;50.75;25.70;;;-0.10;99.90;;;;;;5062534;28;20413;-79
2022/01/17 03:15:59;;;;;;;43.63;24.95;;;-0.10;99.90;;;;;;5051721;28;20458;-79
2022/01/17 03:18:29;;;;;;;52.28;25.75;;;-0.10;99.90;;;;;;5061616;28;20438;-79
2022/01/17 03:20:56;;;;;;;50.80;25.42;;;-0.20;99.90;;;;;;5064470;28;20412;-79
2022/01/17 03:23:22;;;;;;;50.15;24.80;;;-0.20;99.90;;;;;;5061131;28;20025;-79
2022/01/17 03:25:48;;;;;;;44.45;22.25;;;-0.20;99.90;;;;;;5061662;28;20013;-79
2022/01/17 03:28:14;;;;;;;46.17;22.23;;;-0.20;99.90;;;;;;5063757;28;20104;-79
2022/01/17 03:30:40;;;;;;;47.38;22.90;;;-0.20;99.90;;;;;;5061797;28;20747;-79
2022/01/17 03:33:09;;;;;;;43.35;21.38;;;-0.20;99.90;;;;;;5062755;28;20045;-79
2022/01/17 03:35:38;;;;;;;46.80;23.50;;;-0.20;99.90;;;;;;5058871;28;20059;-79
2022/01/17 03:38:05;;;;;;;45.83;23.58;;;-0.30;99.90;;;;;;5060381;28;20027;-79
2022/01/17 03:40:31;;;;;;;50.45;25.08;;;-0.30;99.90;;;;;;5061619;28;20512;-79
2022/01/17 03:42:56;;;;;;;55.92;25.80;;;-0.30;99.90;;;;;;5061681;28;20052;-79
2022/01/17 03:45:22;;;;;;;50.35;25.30;;;-0.30;99.90;;;;;;5062857;28;20092;-79
2022/01/17 03:47:48;;;;;;;53.22;25.50;;;-0.30;99.90;;;;;;5059908;28;20052;-78
2022/01/17 03:50:16;;;;;;;50.28;24.98;;;-0.30;99.90;;;;;;5063090;28;20066;-79
2022/01/17 03:52:42;;;;;;;53.30;24.95;;;-0.20;99.90;;;;;;5061162;28;20111;-79
2022/01/17 03:55:10;;;;;;;43.38;21.45;;;-0.30;99.90;;;;;;5060365;28;20184;-79
2022/01/17 03:57:36;;;;;;;48.42;24.38;;;-0.20;99.90;;;;;;5056944;28;20017;-79
2022/01/17 04:00:05;;;;;;;49.50;25.08;;;-0.30;99.90;;;;;;5060959;28;20123;-79
2022/01/17 04:02:30;;;;;;;44.90;23.25;;;-0.20;99.90;;;;;;5059345;28;20111;-78
2022/01/17 04:04:56;;;;;;;48.53;24.67;;;-0.20;99.90;;;;;;5059322;28;20104;-79
2022/01/17 04:07:21;;;;;;;49.75;25.52;;;-0.20;99.90;;;;;;5062354;28;20028;-79
2022/01/17 04:09:47;;;;;;;42.88;22.98;;;-0.20;99.90;;;;;;5059948;28;20017;-79
2022/01/17 04:12:12;;;;;;;48.25;25.92;;;-0.20;99.90;;;;;;5059813;28;20055;-79
2022/01/17 04:14:38;;;;;;;56.60;26.55;;;-0.20;99.90;;;;;;5060874;28;20554;-79
2022/01/17 04:17:06;;;;;;;54.95;26.98;;;-0.20;99.90;;;;;;5058303;28;20067;-79
2022/01/17 04:19:32;;;;;;;59.30;27.45;;;-0.10;99.90;;;;;;5059718;28;20036;-79
2022/01/17 04:21:58;;;;;;;47.20;26.25;;;-0.10;99.90;;;;;;5060597;28;20051;-79
2022/01/17 04:24:24;;;;;;;55.72;26.30;;;0.00;99.90;;;;;;5059853;28;20070;-79
2022/01/17 04:26:50;;;;;;;53.55;25.55;;;0.00;99.90;;;;;;5056038;28;20024;-79
2022/01/17 04:29:16;;;;;;;50.42;27.08;;;0.10;99.90;;;;;;5062364;28;20380;-79
2022/01/17 04:31:41;;;;;;;40.72;22.77;;;0.10;99.90;;;;;;5057486;28;20056;-79
2022/01/17 04:34:07;;;;;;;50.70;23.85;;;0.20;99.90;;;;;;5060856;28;20047;-79
2022/01/17 04:36:32;;;;;;;44.78;23.40;;;0.20;99.90;;;;;;5060786;28;20032;-79
2022/01/17 04:38:58;;;;;;;43.53;23.75;;;0.30;99.90;;;;;;5058713;28;20024;-79
2022/01/17 04:41:35;;;;;;;50.80;26.30;;;0.40;99.90;;;;;;5060849;28;20063;-79
2022/01/17 04:45:07;;;;;;;47.75;23.98;;;0.40;99.90;;;;;;5057692;28;20013;-79
2022/01/17 04:46:46;;;;;;;45.28;23.73;;;0.40;99.90;;;;;;5061182;28;20035;-79
2022/01/17 04:49:12;;;;;;;45.13;25.27;;;0.50;99.90;;;;;;5056914;28;20016;-79
2022/01/17 04:51:38;;;;;;;43.97;22.17;;;0.50;99.90;;;;;;5060541;28;20017;-79
2022/01/17 04:56:44;;;;;;;46.90;25.27;;;0.50;99.90;;;;;;5060895;28;20170;-79
2022/01/17 04:59:10;;;;;;;43.70;22.95;;;0.50;99.90;;;;;;5060199;28;20033;-79
2022/01/17 05:01:35;;;;;;;46.25;23.10;;;0.50;99.90;;;;;;5059565;28;20032;-79
2022/01/17 05:04:01;;;;;;;49.00;26.08;;;0.50;99.90;;;;;;5057972;28;20024;-79
2022/01/17 05:06:26;;;;;;;52.00;26.10;;;0.60;99.90;;;;;;5055513;28;20029;-79
2022/01/17 05:08:52;;;;;;;47.47;24.95;;;0.60;99.90;;;;;;5060870;28;20020;-80
2022/01/17 05:11:17;;;;;;;49.50;24.75;;;0.60;99.90;;;;;;5058384;28;20036;-79
2022/01/17 05:13:47;;;;;;;46.83;24.85;;;0.60;99.90;;;;;;5060977;28;20020;-79
2022/01/17 05:16:15;;;;;;;45.45;24.27;;;0.60;99.90;;;;;;5059181;28;20040;-79
2022/01/17 05:21:06;;;;;;;46.22;22.77;;;0.60;99.90;;;;;;5059265;28;20049;-79
2022/01/17 05:23:32;;;;;;;47.30;25.33;;;0.50;99.90;;;;;;5060388;28;20029;-79
2022/01/17 05:25:57;;;;;;;46.05;24.40;;;0.60;99.90;;;;;;5056850;28;20021;-78
2022/01/17 05:28:23;;;;;;;518.42;188.65;;;0.50;99.90;;;;;;5059670;28;20449;-78
2022/01/17 05:30:49;;;;;;;918.28;378.02;;;0.50;99.90;;;;;;5061300;28;20025;-78
2022/01/17 05:33:14;;;;;;;957.92;380.00;;;0.50;99.90;;;;;;5060011;28;20021;-79
2022/01/17 05:35:40;;;;;;;911.03;360.60;;;0.50;99.90;;;;;;5059179;28;20031;-78
2022/01/17 05:38:05;;;;;;;821.10;321.58;;;0.50;99.90;;;;;;5057676;28;20025;-79
2022/01/17 05:40:31;;;;;;;947.92;380.50;;;0.40;99.90;;;;;;5057529;28;20025;-79
2022/01/17 05:42:57;;;;;;;627.50;242.45;;;0.50;99.90;;;;;;5055960;28;20024;-79
2022/01/17 05:45:22;;;;;;;178.85;56.42;;;0.50;99.90;;;;;;5057823;28;21040;-79
2022/01/17 05:47:48;;;;;;;132.95;44.65;;;0.60;99.90;;;;;;5060772;28;20028;-79
2022/01/17 05:50:15;;;;;;;99.88;38.30;;;0.60;99.90;;;;;;5053472;28;20044;-80
2022/01/17 05:52:42;;;;;;;78.65;33.35;;;0.50;99.90;;;;;;5059612;28;20055;-79
2022/01/17 05:55:11;;;;;;;92.82;40.38;;;0.50;99.90;;;;;;5055571;28;20103;-80
2022/01/17 05:57:36;;;;;;;47.28;24.58;;;0.50;99.90;;;;;;5054857;28;20036;-80
2022/01/17 06:00:10;;;;;;;130.07;58.40;;;0.60;99.90;;;;;;5059855;28;20033;-80
2022/01/17 06:02:35;;;;;;;87.30;36.50;;;0.60;99.90;;;;;;5053064;28;20029;-80
2022/01/17 06:05:01;;;;;;;92.13;34.35;;;0.60;99.90;;;;;;5053284;28;20032;-79
2022/01/17 06:07:27;;;;;;;55.50;23.88;;;0.60;99.90;;;;;;5053864;28;20060;-79
2022/01/17 06:09:52;;;;;;;55.40;25.65;;;0.60;99.90;;;;;;5056007;28;20042;-80
2022/01/17 06:12:18;;;;;;;49.95;26.52;;;0.60;99.90;;;;;;5053427;28;20077;-79
2022/01/17 06:14:44;;;;;;;81.38;41.30;;;0.60;99.90;;;;;;5052676;28;20126;-79
2022/01/17 06:17:10;;;;;;;64.47;29.92;;;0.70;99.90;;;;;;5054933;28;20051;-79
2022/01/17 06:19:35;;;;;;;56.97;25.08;;;0.70;99.90;;;;;;5053657;28;20460;-79
2022/01/17 06:22:02;;;;;;;78.85;32.00;;;0.70;99.90;;;;;;5053506;28;20031;-79
2022/01/17 06:24:28;;;;;;;93.95;39.40;;;0.80;99.90;;;;;;5054737;28;20151;-80
2022/01/17 06:26:53;;;;;;;50.58;26.55;;;0.80;99.90;;;;;;5053807;28;20111;-79
2022/01/17 06:29:19;;;;;;;60.92;27.98;;;0.80;99.90;;;;;;5054506;28;20017;-79
2022/01/17 06:31:45;;;;;;;87.10;39.53;;;0.80;99.90;;;;;;5056791;28;20828;-80
2022/01/17 06:34:11;;;;;;;47.47;25.02;;;0.80;99.90;;;;;;5057766;28;20033;-80
2022/01/17 06:36:41;;;;;;;45.00;21.05;;;0.80;99.90;;;;;;5059502;28;20048;-79
2022/01/17 06:39:07;;;;;;;75.88;31.80;;;0.80;99.90;;;;;;5056543;28;20037;-79
2022/01/17 06:41:33;;;;;;;65.22;26.02;;;0.80;99.90;;;;;;5066246;28;20025;-78
2022/01/17 06:43:59;;;;;;;42.42;23.15;;;0.70;99.90;;;;;;5064666;28;20420;-79
2022/01/17 06:46:25;;;;;;;66.60;26.08;;;0.70;99.90;;;;;;5062621;28;20028;-79
2022/01/17 06:48:51;;;;;;;42.95;22.92;;;0.70;99.90;;;;;;5068625;28;20512;-79
2022/01/17 06:51:17;;;;;;;49.08;19.88;;;0.70;99.90;;;;;;5065077;28;20501;-79
2022/01/17 06:53:44;;;;;;;40.03;17.63;;;0.70;99.90;;;;;;5066090;28;20056;-79
2022/01/17 06:56:10;;;;;;;44.45;20.63;;;0.70;99.90;;;;;;5062748;28;20378;-78
2022/01/17 06:58:36;;;;;;;27.00;15.23;;;0.70;99.90;;;;;;5060327;28;20091;-78
2022/01/17 07:01:03;;;;;;;30.33;14.45;;;0.70;99.90;;;;;;5055074;28;20025;-78
2022/01/17 07:03:29;;;;;;;35.20;15.70;;;0.70;99.90;;;;;;5054171;28;20032;-77
2022/01/17 07:05:55;;;;;;;28.00;13.88;;;0.70;99.90;;;;;;5052579;28;20017;-78
2022/01/17 07:08:20;;;;;;;25.65;14.93;;;0.70;99.90;;;;;;5061388;28;20103;-78
2022/01/17 07:10:46;;;;;;;29.88;15.30;;;0.70;99.90;;;;;;5062597;28;20024;-78
2022/01/17 07:13:11;;;;;;;22.73;12.02;;;0.80;99.90;;;;;;5061045;28;20419;-78
2022/01/17 07:15:37;;;;;;;18.88;9.50;;;0.90;99.90;;;;;;5064501;28;20355;-77
2022/01/17 07:18:03;;;;;;;20.33;11.70;;;0.90;99.90;;;;;;5068334;28;20363;-79
2022/01/17 07:20:28;;;;;;;23.40;12.68;;;0.90;99.90;;;;;;5060623;28;20062;-78
2022/01/17 07:22:54;;;;;;;21.08;12.85;;;0.90;99.90;;;;;;5060270;28;20017;-78
2022/01/17 07:25:20;;;;;;;21.08;12.25;;;1.00;99.90;;;;;;5061203;28;20470;-79
2022/01/17 07:27:45;;;;;;;18.52;9.88;;;1.00;99.90;;;;;;5065623;28;20032;-78
2022/01/17 07:30:12;;;;;;;19.17;11.68;;;1.00;99.90;;;;;;5062937;28;20477;-80
2022/01/17 07:32:38;;;;;;;22.73;11.90;;;1.10;99.90;;;;;;5062266;28;20044;-77
2022/01/17 07:35:05;;;;;;;16.08;10.95;;;1.20;99.90;;;;;;5061490;28;20496;-77
2022/01/17 07:37:30;;;;;;;22.35;13.23;;;1.20;99.90;;;;;;5057266;28;20028;-78
2022/01/17 07:39:56;;;;;;;20.77;13.07;;;1.20;99.90;;;;;;5049044;28;20110;-77
2022/01/17 07:42:21;;;;;;;21.30;12.10;;;1.20;99.90;;;;;;5051984;28;20032;-78
2022/01/17 07:44:53;;;;;;;22.23;13.00;;;1.20;99.90;;;;;;5052769;28;20075;-78
2022/01/17 07:47:27;;;;;;;25.58;14.50;;;1.20;99.90;;;;;;5050896;28;20021;-78
2022/01/17 07:49:53;;;;;;;21.92;14.57;;;1.30;99.90;;;;;;5047720;28;20126;-77
2022/01/17 07:52:18;;;;;;;27.85;17.23;;;1.30;99.90;;;;;;5052360;28;20025;-77
2022/01/17 07:54:47;;;;;;;23.25;15.40;;;1.30;99.90;;;;;;5052443;28;20025;-77
2022/01/17 07:57:14;;;;;;;24.73;15.52;;;1.40;99.90;;;;;;5043793;28;20287;-77
2022/01/17 07:59:39;;;;;;;21.52;12.20;;;1.40;99.90;;;;;;5033991;28;20124;-77
2022/01/17 08:02:05;;;;;;;25.25;14.40;;;1.40;99.90;;;;;;5043577;28;20124;-77
2022/01/17 08:04:31;;;;;;;22.65;14.25;;;1.40;99.90;;;;;;5045672;28;20151;-77
2022/01/17 08:06:57;;;;;;;24.23;13.48;;;1.40;99.90;;;;;;5053458;28;20037;-77
2022/01/17 08:09:31;;;;;;;21.27;12.35;;;1.40;99.90;;;;;;5053406;28;20017;-77
2022/01/17 08:11:57;;;;;;;25.63;13.25;;;1.40;99.90;;;;;;5051508;28;20033;-77
2022/01/17 08:14:24;;;;;;;28.10;14.23;;;1.50;99.90;;;;;;5051615;28;20056;-77
2022/01/17 08:16:50;;;;;;;23.13;13.25;;;1.50;99.90;;;;;;5051588;28;20363;-77
2022/01/17 08:19:16;;;;;;;27.55;15.60;;;1.50;99.90;;;;;;5051815;28;20397;-77
2022/01/17 08:21:42;;;;;;;24.10;13.95;;;1.50;99.90;;;;;;5043563;28;20025;-77
2022/01/17 08:24:07;;;;;;;22.85;12.90;;;1.60;99.90;;;;;;5045024;28;20028;-77
2022/01/17 08:26:33;;;;;;;19.80;11.98;;;1.70;99.90;;;;;;5043628;28;20033;-77
2022/01/17 08:28:59;;;;;;;16.65;9.80;;;1.70;99.90;;;;;;5042812;28;20100;-77
2022/01/17 08:31:24;;;;;;;22.15;12.50;;;1.80;99.90;;;;;;5042836;28;20025;-77
2022/01/17 08:33:50;;;;;;;20.58;13.50;;;1.80;99.90;;;;;;5042602;28;20356;-77
2022/01/17 08:36:19;;;;;;;23.65;16.02;;;1.80;99.90;;;;;;5047622;28;20044;-77
2022/01/17 08:38:46;;;;;;;14.98;10.80;;;1.90;99.90;;;;;;5042436;28;20066;-77
2022/01/17 08:41:12;;;;;;;18.15;10.48;;;1.90;99.90;;;;;;5042454;28;20032;-77
2022/01/17 08:43:37;;;;;;;17.60;10.40;;;1.90;99.90;;;;;;5043307;28;20029;-77
2022/01/17 08:46:03;;;;;;;15.40;9.90;;;2.00;99.90;;;;;;5044107;28;20446;-77
2022/01/17 08:48:29;;;;;;;21.27;10.02;;;1.90;99.90;;;;;;5034457;28;20030;-77
2022/01/17 08:50:54;;;;;;;16.95;11.20;;;1.90;99.90;;;;;;5033937;28;20506;-76
2022/01/17 08:53:20;;;;;;;19.08;11.13;;;1.90;99.90;;;;;;5045077;28;20435;-77
2022/01/17 08:55:47;;;;;;;17.40;12.10;;;1.90;99.90;;;;;;5045462;28;20048;-77
2022/01/17 08:58:14;;;;;;;30.67;19.33;;;1.90;99.90;;;;;;5088278;28;20025;-77
2022/01/17 09:00:41;;;;;;;35.17;19.65;;;1.80;99.90;;;;;;5072568;28;20025;-77
2022/01/17 09:03:07;;;;;;;31.95;14.95;;;1.80;99.90;;;;;;5071267;28;20115;-77
2022/01/17 09:05:34;;;;;;;30.50;16.67;;;1.80;99.90;;;;;;5045570;28;20023;-77
2022/01/17 09:08:01;;;;;;;29.88;18.40;;;1.70;99.90;;;;;;5049881;28;20490;-77
2022/01/17 09:10:27;;;;;;;28.45;16.42;;;1.70;99.90;;;;;;5052709;28;20017;-76
2022/01/17 09:12:54;;;;;;;29.55;15.25;;;1.60;99.90;;;;;;5042841;28;20034;-76
2022/01/17 09:15:20;;;;;;;57.60;30.10;;;1.50;99.90;;;;;;5031523;28;20017;-77
2022/01/17 09:17:45;;;;;;;33.35;20.00;;;1.50;99.90;;;;;;5045749;28;20052;-77
2022/01/17 09:20:12;;;;;;;29.77;17.80;;;1.40;99.90;;;;;;5051346;28;20032;-77
2022/01/17 09:22:37;;;;;;;32.53;19.77;;;1.40;99.90;;;;;;5052267;28;20041;-77
2022/01/17 09:25:06;;;;;;;37.30;21.15;;;1.40;99.90;;;;;;5051341;28;20159;-77
2022/01/17 09:27:33;;;;;;;30.10;18.55;;;1.40;99.90;;;;;;5052129;28;20568;-78
2022/01/17 09:29:59;;;;;;;25.83;16.00;;;1.40;99.90;;;;;;5060419;28;20035;-77
2022/01/17 09:32:24;;;;;;;24.73;14.02;;;1.40;99.90;;;;;;5045295;28;20034;-77
2022/01/17 09:34:50;;;;;;;26.67;17.58;;;1.40;99.90;;;;;;5048863;28;20029;-77
2022/01/17 09:37:15;;;;;;;22.45;14.50;;;1.30;99.90;;;;;;5067370;28;20041;-76
2022/01/17 09:39:41;;;;;;;25.92;16.65;;;1.40;99.90;;;;;;5057734;28;20057;-77
2022/01/17 09:42:08;;;;;;;21.52;14.38;;;1.40;99.90;;;;;;5059632;28;20397;-77
2022/01/17 09:44:34;;;;;;;19.67;12.95;;;1.40;99.90;;;;;;5062570;28;20105;-77
2022/01/17 09:47:04;;;;;;;22.27;14.30;;;1.40;99.90;;;;;;5056573;28;20021;-76
2022/01/17 09:49:40;;;;;;;20.85;13.50;;;1.40;99.90;;;;;;5056418;28;20425;-77
2022/01/17 09:52:34;;;;;;;19.23;12.70;;;1.40;99.90;;;;;;5060725;28;20044;-78
2022/01/17 09:55:01;;;;;;;;;;;1.40;99.90;;;;;;5061718;28;20017;-77
2022/01/17 09:57:29;;;;;;;19.13;12.95;;;1.50;99.90;;;;;;5059786;28;20002;-76
2022/01/17 09:59:57;;;;;;;20.63;13.70;;;1.50;99.90;;;;;;5054209;28;20040;-77
2022/01/17 10:02:22;;;;;;;27.85;15.30;;;1.50;99.90;;;;;;5061228;28;20025;-77
2022/01/17 10:04:48;;;;;;;18.80;10.50;;;1.50;99.90;;;;;;5055168;28;20028;-77
2022/01/17 10:07:14;;;;;;;17.35;10.00;;;1.50;99.90;;;;;;5030700;28;20559;-77
2022/01/17 10:09:43;;;;;;;18.83;11.77;;;1.50;99.90;;;;;;5050871;28;20029;-77
2022/01/17 10:12:15;;;;;;;17.40;10.27;;;1.50;99.90;;;;;;5053960;28;20029;-77
2022/01/17 10:14:43;;;;;;;14.68;9.48;;;1.50;99.90;;;;;;5060187;28;20469;-77
2022/01/17 10:17:14;;;;;;;12.48;8.85;;;1.50;99.90;;;;;;5061988;28;20076;-78
2022/01/17 10:19:41;;;;;;;15.27;10.63;;;1.50;99.90;;;;;;5054719;28;20033;-77
2022/01/17 10:22:14;;;;;;;13.90;9.02;;;1.50;99.90;;;;;;5055757;28;20112;-77
2022/01/17 10:35:45;;;;;;;10.07;7.10;;;1.50;99.90;;;;;;5049126;28;20505;-77
2022/01/17 10:38:16;;;;;;;10.00;7.20;;;1.60;99.90;;;;;;5016702;28;20065;-78
2022/01/17 10:41:04;;;;;;;11.95;7.15;;;1.60;99.90;;;;;;5054691;28;20032;-77
2022/01/17 10:43:35;;;;;;;9.93;7.50;;;1.60;99.90;;;;;;5054937;28;20068;-77
2022/01/17 10:46:04;;;;;;;9.52;6.53;;;1.60;99.90;;;;;;5055231;28;20033;-77
2022/01/17 10:48:36;;;;;;;11.30;6.72;;;1.50;99.90;;;;;;5052406;28;20047;-77
2022/01/17 10:51:04;;;;;;;9.30;6.57;;;1.50;99.90;;;;;;5053252;28;20040;-77
2022/01/17 10:53:30;;;;;;;12.48;6.82;;;1.50;99.90;;;;;;5054609;28;20525;-78
2022/01/17 10:55:57;;;;;;;12.63;7.90;;;1.50;99.90;;;;;;5053307;28;20029;-77
2022/01/17 10:58:25;;;;;;;12.27;6.38;;;1.40;99.90;;;;;;5053358;28;20044;-77
2022/01/17 11:00:54;;;;;;;20.58;11.90;;;1.40;99.90;;;;;;5053470;28;20029;-77
2022/01/17 11:03:24;;;;;;;16.75;9.70;;;1.40;99.90;;;;;;5054497;28;20194;-77
2022/01/17 11:05:52;;;;;;;19.95;12.90;;;1.40;99.90;;;;;;5053665;28;20591;-77
2022/01/17 11:08:21;;;;;;;14.50;9.88;;;1.50;99.90;;;;;;5054603;28;20071;-76
2022/01/17 11:10:50;;;;;;;22.95;14.63;;;1.50;99.90;;;;;;5048333;28;20466;-77
2022/01/17 11:13:18;;;;;;;17.23;12.77;;;1.50;99.90;;;;;;5055098;28;20037;-76
2022/01/17 11:15:47;;;;;;;50.70;27.90;;;1.50;99.90;;;;;;5054699;28;20024;-77
2022/01/17 11:18:20;;;;;;;87.40;46.17;;;1.50;99.90;;;;;;5053584;28;20032;-76
2022/01/17 11:20:49;;;;;;;45.35;21.23;;;1.50;99.90;;;;;;5054041;28;20037;-76
2022/01/17 11:23:15;;;;;;;68.40;31.90;;;1.50;99.90;;;;;;5054475;28;20091;-77
2022/01/17 11:25:43;;;;;;;82.22;41.15;;;1.50;99.90;;;;;;5054414;28;20053;-77
2022/01/17 11:28:09;;;;;;;66.25;33.85;;;1.60;99.90;;;;;;5051147;28;20067;-77
2022/01/17 11:30:37;;;;;;;43.08;20.85;;;1.60;99.90;;;;;;5049071;28;20078;-77
2022/01/17 11:33:06;;;;;;;45.42;20.42;;;1.60;99.90;;;;;;5052063;28;20437;-77
2022/01/17 11:35:34;;;;;;;32.17;13.48;;;1.60;99.90;;;;;;5053659;28;20013;-78
2022/01/17 11:38:01;;;;;;;19.60;8.90;;;1.60;99.90;;;;;;5055193;28;20036;-77
2022/01/17 11:40:35;;;;;;;27.63;12.80;;;1.60;99.90;;;;;;5054784;28;20048;-78
2022/01/17 11:43:22;;;;;;;24.63;10.75;;;1.60;99.90;;;;;;5054998;28;20028;-77
2022/01/17 11:45:51;;;;;;;17.10;8.57;;;1.60;99.90;;;;;;5053048;28;20573;-77
2022/01/17 11:48:21;;;;;;;22.60;9.95;;;1.60;99.90;;;;;;5058638;28;20028;-77
2022/01/17 11:50:49;;;;;;;11.55;6.28;;;1.60;99.90;;;;;;5057500;28;20036;-77
2022/01/17 11:53:14;;;;;;;9.15;6.00;;;1.60;99.90;;;;;;5058524;28;20059;-78
2022/01/17 11:55:40;;;;;;;6.53;3.63;;;1.60;99.90;;;;;;5059162;28;20048;-77
2022/01/17 11:58:19;;;;;;;1.73;1.63;;;0.40;99.90;;;;;;5057904;28;20683;-77
2022/01/17 12:00:46;;;;;;;1.70;1.45;;;0.00;99.90;;;;;;5056450;28;20086;-77
2022/01/17 12:03:23;;;;;;;2.30;1.98;;;-0.20;99.90;;;;;;5056508;28;20025;-77
2022/01/17 12:05:49;;;;;;;1.80;1.30;;;-0.40;99.90;;;;;;5055956;28;20017;-77
2022/01/17 12:08:17;;;;;;;2.90;1.73;;;-0.60;99.90;;;;;;5058426;28;20112;-77
2022/01/17 12:10:57;;;;;;;2.80;2.60;;;-0.70;99.90;;;;;;5055329;28;20013;-77
2022/01/17 12:13:35;;;;;;;5.32;3.33;;;-0.90;99.90;;;;;;5055369;28;20036;-76
2022/01/17 12:16:10;;;;;;;8.52;3.75;;;-1.10;99.90;;;;;;5056319;28;20366;-77
2022/01/17 12:18:43;;;;;;;3.33;2.70;;;-1.30;99.90;;;;;;5049548;28;20460;-77
2022/01/17 12:21:21;;;;;;;6.20;3.83;;;-1.40;99.90;;;;;;5056070;28;20593;-77
2022/01/17 12:23:49;;;;;;;6.03;3.20;;;-1.60;99.90;;;;;;5055731;28;20039;-77
2022/01/17 12:26:31;;;;;;;9.32;4.72;;;-1.60;99.90;;;;;;5057895;28;20029;-76
2022/01/17 12:28:59;;;;;;;5.72;3.97;;;-1.60;99.90;;;;;;5055952;28;20021;-77
2022/01/17 12:31:46;;;;;;;5.82;3.65;;;-1.70;99.90;;;;;;5057284;28;20043;-77
2022/01/17 12:34:25;;;;;;;3.90;2.35;;;-1.70;99.90;;;;;;5055592;28;20511;-77
2022/01/17 12:36:53;;;;;;;6.32;3.40;;;-1.60;99.90;;;;;;5057535;28;20020;-77
2022/01/17 12:39:27;;;;;;;4.85;2.97;;;-1.50;99.90;;;;;;5057508;28;20029;-77
2022/01/17 12:41:59;;;;;;;4.10;2.95;;;-1.50;99.90;;;;;;5061805;28;20016;-77
2022/01/17 12:44:27;;;;;;;3.33;2.50;;;-1.50;99.90;;;;;;5056110;28;20431;-76
2022/01/17 12:47:02;;;;;;;3.75;3.10;;;-1.50;99.90;;;;;;5056535;28;20488;-77
2022/01/17 12:49:28;;;;;;;5.78;5.03;;;-1.40;99.90;;;;;;5056888;28;20143;-76
2022/01/17 12:51:57;;;;;;;4.25;2.83;;;-1.30;99.90;;;;;;5054859;28;20499;-77
2022/01/17 12:54:25;;;;;;;6.00;2.88;;;-1.30;99.90;;;;;;5057022;28;20017;-77
2022/01/17 12:56:54;;;;;;;5.97;3.35;;;-1.20;99.90;;;;;;5056288;28;20030;-77
2022/01/17 12:59:21;;;;;;;3.58;2.45;;;-1.20;99.90;;;;;;5056795;28;20060;-77
2022/01/17 13:01:54;;;;;;;4.38;2.47;;;-1.10;99.90;;;;;;5057178;28;20686;-77
2022/01/17 13:04:21;;;;;;;4.07;3.00;;;-1.20;99.90;;;;;;5053704;28;20044;-77
2022/01/17 13:06:48;;;;;;;6.25;4.32;;;-1.10;99.90;;;;;;5054407;28;20059;-77
2022/01/17 13:09:24;;;;;;;5.10;3.20;;;-1.10;99.90;;;;;;5055207;28;20009;-77